Wednesday, November 22, 2017, 8:59 AM GMT
Back to Local

CWVQ, Ste Anne De Bell 1

Location: , , Canada Lat: 45.433
Local Time: 8:59 AM GMT ( 8:59 GMT) Lon: -73.933
Time Zone: GMT Elev: 127 ft

Show me the last for .
Show Decoded

2017-11-22 08:00 METAR CWVQ 220800Z AUTO 26003KT 04/03 RMK AO1 SLP113 T00440032 53011 =
2017-11-22 07:00 METAR CWVQ 220700Z AUTO 25002KT 05/02 RMK AO1 SLP109 T00510022 53011 =
2017-11-22 06:00 METAR CWVQ 220600Z AUTO 20002KT 07/M00 RMK AO1 SLP103 T00681004 51009 =
2017-11-22 05:00 METAR CWVQ 220500Z AUTO 20003KT 07/M01 RMK AO1 SLP102 T00721007 53011 =
2017-11-22 04:00 METAR CWVQ 220400Z AUTO 21003KT 07/M01 RMK AO1 SLP098 T00721009 53009 =
2017-11-22 03:00 METAR CWVQ 220300Z AUTO 16003KT 07/M01 RMK AO1 SLP094 T00691013 52008 =
2017-11-22 02:00 METAR CWVQ 220200Z AUTO 19004KT 07/M00 RMK AO1 SLP091 T00731004 51011 =
2017-11-22 01:00 METAR CWVQ 220100Z AUTO 18003KT 05/M02 RMK AO1 SLP089 T00521019 51016 =
2017-11-22 00:00 METAR CWVQ 220000Z AUTO 19002KT 03/M02 RMK AO1 SLP087 T00341017 53017 =
2017-11-21 23:00 METAR CWVQ 212300Z AUTO 18002KT 03/M01 RMK AO1 SLP080 T00341008 51019 =
2017-11-21 22:00 METAR CWVQ 212200Z AUTO 22002KT 03/M00 RMK AO1 SLP073 T00341001 53012 =
2017-11-21 21:00 METAR CWVQ 212100Z AUTO 20001KT 06/01 RMK AO1 SLP069 T00590008 53004 =
2017-11-21 20:00 METAR CWVQ 212000Z AUTO 15005KT 08/01 RMK AO1 SLP061 T00760007 56008 =
2017-11-21 19:00 METAR CWVQ 211900Z AUTO 20006KT 10/M02 RMK AO1 SLP061 T00971022 56015 =
2017-11-21 18:00 METAR CWVQ 211800Z AUTO 14003KT 07/M00 RMK AO1 SLP065 T00721002 57015 =
2017-11-21 17:00 METAR CWVQ 211700Z AUTO 14004KT 08/M01 RMK AO1 SOG 00 6020 SLP069 T00761006 =
2017-11-21 16:00 METAR CWVQ 211600Z AUTO 13002KT 06/M01 RMK AO1 SOG 00 6019 SLP076 T00641009 =
2017-11-21 15:00 METAR CWVQ 211500Z AUTO 14006KT 05/M01 RMK AO1 SOG 00 8021 SLP081 T00471013 =
2017-11-21 14:00 METAR CWVQ 211400Z AUTO 01002KT M01/M03 RMK AO1 SOG 00 6021 SLP090 T10111033 =
2017-11-21 13:00 METAR CWVQ 211300Z AUTO 02002KT M03/M04 RMK AO1 SOG 00 8020 SLP096 T10301035 =
2017-11-21 12:00 METAR CWVQ 211200Z AUTO 01003KT M04/M05 RMK AO1 SOG 01 8018 SLP102 T10421053 =
2017-11-21 11:00 METAR CWVQ 211100Z AUTO 02004KT M03/M04 RMK AO1 SOG 00 6015 SLP111 T10311042 =
2017-11-21 10:00 METAR CWVQ 211000Z AUTO 05003KT M03/M04 RMK AO1 SOG 00 6022 SLP116 T10261038 =
2017-11-21 09:00 METAR CWVQ 210900Z AUTO 11005KT M02/M03 RMK AO1 SOG 01 8023 SLP120 T10191034 =

Support USWX by starting your Amazon purchase here.